This is the latest recevied weather packets stored in our database for station/object DH7LK-5. If no packets are shown the sender has not sent any weather packets the latest 10 day(s).
| Time | Temp. | Humidity | Pressure | Rain* | Wind** | Luminosity | Snow |
|---|---|---|---|---|---|---|---|
| 1777189744 | 10° C | 71% | - | 0 mm | - | - | - |
| 1777187939 | 9.44° C | 75% | - | 0 mm | - | - | - |
| 1777186034 | 8.33° C | 80% | - | 0 mm | - | - | - |
| 1777184129 | 7.78° C | 82% | - | 0 mm | - | - | - |
| 1777182177 | 6.67° C | 85% | - | 0 mm | - | - | - |
| 1777180365 | 5.56° C | 88% | - | 0 mm | - | - | - |
| 1777178520 | 5° C | 90% | - | 0 mm | - | - | - |
| 1777176701 | 5° C | 90% | - | 0 mm | - | - | - |
| 1777174842 | 5° C | 89% | - | 0 mm | - | - | - |
| 1777172993 | 5.56° C | 88% | - | 0 mm | - | - | - |
| 1777171184 | 5.56° C | 86% | - | 0 mm | - | - | - |
| 1777169383 | 6.11° C | 85% | - | 0 mm | - | - | - |
| 1777167563 | 6.11° C | 85% | - | 0 mm | - | - | - |
| 1777165756 | 6.67° C | 82% | - | 0 mm | - | - | - |
| 1777163956 | 6.67° C | 79% | - | 0 mm | - | - | - |
| 1777162155 | 7.22° C | 78% | - | 0 mm | - | - | - |
| 1777160354 | 7.78° C | 77% | - | 0 mm | - | - | - |
| 1777158496 | 7.78° C | 76% | - | 0 mm | - | - | - |
| 1777156683 | 8.33° C | 76% | - | 0 mm | - | - | - |
| 1777154857 | 8.89° C | 75% | - | 0 mm | - | - | - |
| 1777153018 | 8.89° C | 75% | - | 0 mm | - | - | - |
| 1777151193 | 8.89° C | 75% | - | 0 mm | - | - | - |
| 1777149365 | 8.89° C | 74% | - | 0 mm | - | - | - |
| 1777147549 | 9.44° C | 74% | - | 0 mm | - | - | - |
| 1777145707 | 10° C | 74% | - | 0 mm | - | - | - |
* Rain since midnight (hover to see other rain measurements)
** Current wind speed in m/s (hover to see current wind gust speed)